sensor_id;sensor_type;location;lat;lon;timestamp;temperature;humidity
24452;DHT22;13350;50.984;5.822;2022-08-30T00:00:53;16.10;99.90
24452;DHT22;13350;50.984;5.822;2022-08-30T00:03:30;16.00;99.90
24452;DHT22;13350;50.984;5.822;2022-08-30T00:05:57;16.00;99.90
24452;DHT22;13350;50.984;5.822;2022-08-30T00:08:26;15.90;99.90
24452;DHT22;13350;50.984;5.822;2022-08-30T00:10:54;15.90;99.90
24452;DHT22;13350;50.984;5.822;2022-08-30T00:13:22;15.90;99.90
24452;DHT22;13350;50.984;5.822;2022-08-30T00:15:50;15.90;99.90
24452;DHT22;13350;50.984;5.822;2022-08-30T00:18:18;15.90;99.90
24452;DHT22;13350;50.984;5.822;2022-08-30T00:20:47;16.00;99.90
24452;DHT22;13350;50.984;5.822;2022-08-30T00:23:16;16.00;99.90
24452;DHT22;13350;50.984;5.822;2022-08-30T00:25:43;16.10;99.90
24452;DHT22;13350;50.984;5.822;2022-08-30T00:28:12;16.10;99.90
24452;DHT22;13350;50.984;5.822;2022-08-30T00:30:41;16.10;99.90
24452;DHT22;13350;50.984;5.822;2022-08-30T00:33:09;16.10;99.90
24452;DHT22;13350;50.984;5.822;2022-08-30T00:35:36;16.00;99.90
24452;DHT22;13350;50.984;5.822;2022-08-30T00:38:04;16.00;99.90
24452;DHT22;13350;50.984;5.822;2022-08-30T00:40:32;16.10;99.90
24452;DHT22;13350;50.984;5.822;2022-08-30T00:43:00;16.10;99.90
24452;DHT22;13350;50.984;5.822;2022-08-30T00:45:33;16.10;99.90
24452;DHT22;13350;50.984;5.822;2022-08-30T00:48:01;16.20;99.90
24452;DHT22;13350;50.984;5.822;2022-08-30T00:50:33;16.20;99.90
24452;DHT22;13350;50.984;5.822;2022-08-30T00:53:04;16.20;99.90
24452;DHT22;13350;50.984;5.822;2022-08-30T00:55:32;16.10;99.90
24452;DHT22;13350;50.984;5.822;2022-08-30T00:58:02;16.10;99.90
24452;DHT22;13350;50.984;5.822;2022-08-30T01:00:33;16.10;99.90
24452;DHT22;13350;50.984;5.822;2022-08-30T01:03:00;16.10;99.90
24452;DHT22;13350;50.984;5.822;2022-08-30T01:05:27;16.00;99.90
24452;DHT22;13350;50.984;5.822;2022-08-30T01:07:55;16.00;99.90
24452;DHT22;13350;50.984;5.822;2022-08-30T01:10:23;15.90;99.90
24452;DHT22;13350;50.984;5.822;2022-08-30T01:12:50;16.00;99.90
24452;DHT22;13350;50.984;5.822;2022-08-30T01:15:18;16.00;99.90
24452;DHT22;13350;50.984;5.822;2022-08-30T01:17:47;16.00;99.90
24452;DHT22;13350;50.984;5.822;2022-08-30T01:20:19;16.00;99.90
24452;DHT22;13350;50.984;5.822;2022-08-30T01:23:01;15.90;99.90
24452;DHT22;13350;50.984;5.822;2022-08-30T01:25:29;15.80;99.90
24452;DHT22;13350;50.984;5.822;2022-08-30T01:28:00;15.80;99.90
24452;DHT22;13350;50.984;5.822;2022-08-30T01:30:30;15.80;99.90
24452;DHT22;13350;50.984;5.822;2022-08-30T01:33:00;15.60;99.90
24452;DHT22;13350;50.984;5.822;2022-08-30T01:35:29;15.60;99.90
24452;DHT22;13350;50.984;5.822;2022-08-30T01:38:00;15.50;99.90
24452;DHT22;13350;50.984;5.822;2022-08-30T01:40:27;15.50;99.90
24452;DHT22;13350;50.984;5.822;2022-08-30T01:42:55;15.60;99.90
24452;DHT22;13350;50.984;5.822;2022-08-30T01:45:22;15.60;99.90
24452;DHT22;13350;50.984;5.822;2022-08-30T01:47:49;15.50;99.90
24452;DHT22;13350;50.984;5.822;2022-08-30T01:50:16;15.40;99.90
24452;DHT22;13350;50.984;5.822;2022-08-30T01:52:43;15.30;99.90
24452;DHT22;13350;50.984;5.822;2022-08-30T01:55:12;15.40;99.90
24452;DHT22;13350;50.984;5.822;2022-08-30T01:57:39;15.50;99.90
24452;DHT22;13350;50.984;5.822;2022-08-30T02:00:08;15.50;99.90
24452;DHT22;13350;50.984;5.822;2022-08-30T02:02:36;15.50;99.90
24452;DHT22;13350;50.984;5.822;2022-08-30T02:05:04;15.50;99.90
24452;DHT22;13350;50.984;5.822;2022-08-30T02:07:31;15.50;99.90
24452;DHT22;13350;50.984;5.822;2022-08-30T02:09:59;15.40;99.90
24452;DHT22;13350;50.984;5.822;2022-08-30T02:12:27;15.40;99.90
24452;DHT22;13350;50.984;5.822;2022-08-30T02:14:55;15.30;99.90
24452;DHT22;13350;50.984;5.822;2022-08-30T02:17:22;15.30;99.90
24452;DHT22;13350;50.984;5.822;2022-08-30T02:19:50;15.20;99.90
24452;DHT22;13350;50.984;5.822;2022-08-30T02:22:17;15.10;99.90
24452;DHT22;13350;50.984;5.822;2022-08-30T02:24:45;15.00;99.90
24452;DHT22;13350;50.984;5.822;2022-08-30T02:27:12;15.00;99.90
24452;DHT22;13350;50.984;5.822;2022-08-30T02:29:41;15.00;99.90
24452;DHT22;13350;50.984;5.822;2022-08-30T02:32:08;15.10;99.90
24452;DHT22;13350;50.984;5.822;2022-08-30T02:34:35;15.10;99.90
24452;DHT22;13350;50.984;5.822;2022-08-30T02:37:03;15.10;99.90
24452;DHT22;13350;50.984;5.822;2022-08-30T02:39:31;15.10;99.90
24452;DHT22;13350;50.984;5.822;2022-08-30T02:41:58;15.00;99.90
24452;DHT22;13350;50.984;5.822;2022-08-30T02:44:25;15.00;99.90
24452;DHT22;13350;50.984;5.822;2022-08-30T02:46:54;15.00;99.90
24452;DHT22;13350;50.984;5.822;2022-08-30T02:49:21;15.00;99.90
24452;DHT22;13350;50.984;5.822;2022-08-30T02:51:49;15.00;99.90
24452;DHT22;13350;50.984;5.822;2022-08-30T02:54:16;15.00;99.90
24452;DHT22;13350;50.984;5.822;2022-08-30T02:56:44;15.00;99.90
24452;DHT22;13350;50.984;5.822;2022-08-30T02:59:13;14.90;99.90
24452;DHT22;13350;50.984;5.822;2022-08-30T03:01:41;14.90;99.90
24452;DHT22;13350;50.984;5.822;2022-08-30T03:04:09;14.80;99.90
24452;DHT22;13350;50.984;5.822;2022-08-30T03:06:36;14.80;99.90
24452;DHT22;13350;50.984;5.822;2022-08-30T03:09:04;14.80;99.90
24452;DHT22;13350;50.984;5.822;2022-08-30T03:11:31;14.80;99.90
24452;DHT22;13350;50.984;5.822;2022-08-30T03:13:59;14.80;99.90
24452;DHT22;13350;50.984;5.822;2022-08-30T03:16:26;14.80;99.90
24452;DHT22;13350;50.984;5.822;2022-08-30T03:18:53;14.90;99.90
24452;DHT22;13350;50.984;5.822;2022-08-30T03:21:25;14.90;99.90
24452;DHT22;13350;50.984;5.822;2022-08-30T03:23:52;15.00;99.90
24452;DHT22;13350;50.984;5.822;2022-08-30T03:26:19;15.00;99.90
24452;DHT22;13350;50.984;5.822;2022-08-30T03:28:46;15.00;99.90
24452;DHT22;13350;50.984;5.822;2022-08-30T03:31:13;15.10;99.90
24452;DHT22;13350;50.984;5.822;2022-08-30T03:33:41;15.20;99.90
24452;DHT22;13350;50.984;5.822;2022-08-30T03:36:09;15.30;99.90
24452;DHT22;13350;50.984;5.822;2022-08-30T03:38:39;15.20;99.90
24452;DHT22;13350;50.984;5.822;2022-08-30T03:41:06;15.20;99.90
24452;DHT22;13350;50.984;5.822;2022-08-30T03:43:33;15.20;99.90
24452;DHT22;13350;50.984;5.822;2022-08-30T03:46:01;15.20;99.90
24452;DHT22;13350;50.984;5.822;2022-08-30T03:48:28;15.10;99.90
24452;DHT22;13350;50.984;5.822;2022-08-30T03:50:56;15.10;99.90
24452;DHT22;13350;50.984;5.822;2022-08-30T03:53:23;15.20;99.90
24452;DHT22;13350;50.984;5.822;2022-08-30T03:55:51;15.30;99.90
24452;DHT22;13350;50.984;5.822;2022-08-30T03:58:19;15.30;99.90
24452;DHT22;13350;50.984;5.822;2022-08-30T04:00:46;15.30;99.90
24452;DHT22;13350;50.984;5.822;2022-08-30T04:03:13;15.30;99.90
24452;DHT22;13350;50.984;5.822;2022-08-30T04:05:40;15.40;99.90
24452;DHT22;13350;50.984;5.822;2022-08-30T04:08:07;15.40;99.90
24452;DHT22;13350;50.984;5.822;2022-08-30T04:10:35;15.40;99.90
24452;DHT22;13350;50.984;5.822;2022-08-30T04:13:03;15.40;99.90
24452;DHT22;13350;50.984;5.822;2022-08-30T04:15:30;15.40;99.90
24452;DHT22;13350;50.984;5.822;2022-08-30T04:17:57;15.40;99.90
24452;DHT22;13350;50.984;5.822;2022-08-30T04:20:24;15.30;99.90
24452;DHT22;13350;50.984;5.822;2022-08-30T04:22:52;15.30;99.90
24452;DHT22;13350;50.984;5.822;2022-08-30T04:25:19;15.30;99.90
24452;DHT22;13350;50.984;5.822;2022-08-30T04:27:46;15.40;99.90
24452;DHT22;13350;50.984;5.822;2022-08-30T04:30:16;15.40;99.90
24452;DHT22;13350;50.984;5.822;2022-08-30T04:32:44;15.40;99.90
24452;DHT22;13350;50.984;5.822;2022-08-30T04:35:12;15.50;99.90
24452;DHT22;13350;50.984;5.822;2022-08-30T04:37:40;15.40;99.90
24452;DHT22;13350;50.984;5.822;2022-08-30T04:40:08;15.40;99.90
24452;DHT22;13350;50.984;5.822;2022-08-30T04:42:36;15.40;99.90
24452;DHT22;13350;50.984;5.822;2022-08-30T04:45:06;15.50;99.90
24452;DHT22;13350;50.984;5.822;2022-08-30T04:47:35;15.50;99.90
24452;DHT22;13350;50.984;5.822;2022-08-30T04:50:04;15.50;99.90
24452;DHT22;13350;50.984;5.822;2022-08-30T04:52:31;15.50;99.90
24452;DHT22;13350;50.984;5.822;2022-08-30T04:54:59;15.50;99.90
24452;DHT22;13350;50.984;5.822;2022-08-30T04:57:27;15.50;99.90
24452;DHT22;13350;50.984;5.822;2022-08-30T04:59:54;15.40;99.90
24452;DHT22;13350;50.984;5.822;2022-08-30T05:02:22;15.40;99.90
24452;DHT22;13350;50.984;5.822;2022-08-30T05:04:51;15.40;99.90
24452;DHT22;13350;50.984;5.822;2022-08-30T05:07:37;15.40;99.90
24452;DHT22;13350;50.984;5.822;2022-08-30T05:10:05;15.40;99.90
24452;DHT22;13350;50.984;5.822;2022-08-30T05:12:33;15.50;99.90
24452;DHT22;13350;50.984;5.822;2022-08-30T05:15:00;15.50;99.90
24452;DHT22;13350;50.984;5.822;2022-08-30T05:17:27;15.50;99.90
24452;DHT22;13350;50.984;5.822;2022-08-30T05:19:56;15.50;99.90
24452;DHT22;13350;50.984;5.822;2022-08-30T05:22:23;15.60;99.90
24452;DHT22;13350;50.984;5.822;2022-08-30T05:24:50;15.70;99.90
24452;DHT22;13350;50.984;5.822;2022-08-30T05:27:17;15.80;99.90
24452;DHT22;13350;50.984;5.822;2022-08-30T05:29:44;15.80;99.90
24452;DHT22;13350;50.984;5.822;2022-08-30T05:32:11;15.80;99.90
24452;DHT22;13350;50.984;5.822;2022-08-30T05:34:38;15.90;99.90
24452;DHT22;13350;50.984;5.822;2022-08-30T05:37:07;15.90;99.90
24452;DHT22;13350;50.984;5.822;2022-08-30T05:39:34;16.00;99.90
24452;DHT22;13350;50.984;5.822;2022-08-30T05:42:01;16.00;99.90
24452;DHT22;13350;50.984;5.822;2022-08-30T05:44:28;16.10;99.90
24452;DHT22;13350;50.984;5.822;2022-08-30T05:46:55;16.10;99.90
24452;DHT22;13350;50.984;5.822;2022-08-30T05:49:22;16.20;99.90
24452;DHT22;13350;50.984;5.822;2022-08-30T05:51:50;16.20;99.90
24452;DHT22;13350;50.984;5.822;2022-08-30T05:54:18;16.40;99.90
24452;DHT22;13350;50.984;5.822;2022-08-30T05:56:45;16.60;99.90
24452;DHT22;13350;50.984;5.822;2022-08-30T05:59:13;16.70;99.90
24452;DHT22;13350;50.984;5.822;2022-08-30T06:01:42;16.80;99.90
24452;DHT22;13350;50.984;5.822;2022-08-30T06:04:11;16.80;99.90
24452;DHT22;13350;50.984;5.822;2022-08-30T06:06:40;16.70;99.90
24452;DHT22;13350;50.984;5.822;2022-08-30T06:09:09;16.70;99.90
24452;DHT22;13350;50.984;5.822;2022-08-30T06:11:38;16.70;99.90
24452;DHT22;13350;50.984;5.822;2022-08-30T06:14:05;16.70;99.90
24452;DHT22;13350;50.984;5.822;2022-08-30T06:16:33;16.70;99.90
24452;DHT22;13350;50.984;5.822;2022-08-30T06:19:04;16.70;99.90
24452;DHT22;13350;50.984;5.822;2022-08-30T06:21:35;16.80;99.90
24452;DHT22;13350;50.984;5.822;2022-08-30T06:24:04;17.10;99.90
24452;DHT22;13350;50.984;5.822;2022-08-30T06:26:38;17.50;99.90
24452;DHT22;13350;50.984;5.822;2022-08-30T06:29:07;17.90;99.90
24452;DHT22;13350;50.984;5.822;2022-08-30T06:31:34;18.20;99.90
24452;DHT22;13350;50.984;5.822;2022-08-30T06:34:02;18.00;99.90
24452;DHT22;13350;50.984;5.822;2022-08-30T06:36:29;17.90;99.90
24452;DHT22;13350;50.984;5.822;2022-08-30T06:38:57;17.80;99.90
24452;DHT22;13350;50.984;5.822;2022-08-30T06:41:32;18.00;99.90
24452;DHT22;13350;50.984;5.822;2022-08-30T06:44:02;18.60;99.90
24452;DHT22;13350;50.984;5.822;2022-08-30T06:46:31;19.00;99.90
24452;DHT22;13350;50.984;5.822;2022-08-30T06:48:59;18.80;99.90
24452;DHT22;13350;50.984;5.822;2022-08-30T06:51:29;18.70;99.90
24452;DHT22;13350;50.984;5.822;2022-08-30T06:53:57;18.70;99.90
24452;DHT22;13350;50.984;5.822;2022-08-30T06:56:25;18.60;99.90
24452;DHT22;13350;50.984;5.822;2022-08-30T06:58:53;18.60;99.90
24452;DHT22;13350;50.984;5.822;2022-08-30T07:01:23;18.60;99.90
24452;DHT22;13350;50.984;5.822;2022-08-30T07:03:51;18.80;99.90
24452;DHT22;13350;50.984;5.822;2022-08-30T07:06:19;18.90;99.90
24452;DHT22;13350;50.984;5.822;2022-08-30T07:08:46;18.90;99.90
24452;DHT22;13350;50.984;5.822;2022-08-30T07:11:14;19.00;99.90
24452;DHT22;13350;50.984;5.822;2022-08-30T07:13:41;19.00;99.90
24452;DHT22;13350;50.984;5.822;2022-08-30T07:16:10;19.00;99.90
24452;DHT22;13350;50.984;5.822;2022-08-30T07:18:39;19.10;99.90
24452;DHT22;13350;50.984;5.822;2022-08-30T07:21:23;19.10;99.90
24452;DHT22;13350;50.984;5.822;2022-08-30T07:23:51;19.20;99.90
24452;DHT22;13350;50.984;5.822;2022-08-30T07:26:21;19.40;99.90
24452;DHT22;13350;50.984;5.822;2022-08-30T07:28:49;19.40;99.90
24452;DHT22;13350;50.984;5.822;2022-08-30T07:31:17;19.60;99.90
24452;DHT22;13350;50.984;5.822;2022-08-30T07:33:46;19.70;99.90
24452;DHT22;13350;50.984;5.822;2022-08-30T07:36:14;19.90;99.90
24452;DHT22;13350;50.984;5.822;2022-08-30T07:38:42;20.20;99.90
24452;DHT22;13350;50.984;5.822;2022-08-30T07:41:16;20.30;99.90
24452;DHT22;13350;50.984;5.822;2022-08-30T07:43:44;20.50;99.90
24452;DHT22;13350;50.984;5.822;2022-08-30T07:46:11;20.70;99.90
24452;DHT22;13350;50.984;5.822;2022-08-30T07:48:38;20.90;99.90
24452;DHT22;13350;50.984;5.822;2022-08-30T07:51:10;21.00;99.90
24452;DHT22;13350;50.984;5.822;2022-08-30T07:53:38;21.00;99.90
24452;DHT22;13350;50.984;5.822;2022-08-30T07:56:05;21.00;99.90
24452;DHT22;13350;50.984;5.822;2022-08-30T07:58:32;21.00;99.90
